Search for airport 
image banner adimage banner adimage banner ad
image banner ad

44L - Wilshire Area

Located in Los Angeles, United States

ICAO - 44L, IATA -

Data provided by Airmate  

General information

Coordinates: N34°2'50" W118°20'34"
Elevation is 150 feet MSL.
Magnetic variation is 14° East
View others Airports in California

Operational data

Special qualification required
Current time UTC:
Current local time:
Weather at : KSMO - Santa Monica Muni ( 11 km )
METAR: KSMO 261014Z AUTO 00000KT 10SM OVC010 17/15 A3002 RMK AO2 T01670150
TAF: KSMO 260559Z 2606/2706 VRB03KT P6SM OVC006 FM260800 VRB03KT P6SM OVC009 FM261700 23006KT P6SM BKN011 FM262000 24009KT P6SM SCT015 FM270300 22005KT P6SM BKN012
View NOTAMs / SUP AIP / TFR affecting this airport [VIEW]
Communications frequencies: [VIEW]

Runways:

Airport contact information

Address: Los Angeles United States

Satellite view of 44L